sensor_id;sensor_type;location;lat;lon;timestamp;temperature;humidity
7030;DHT22;3556;53.500;10.176;2022-10-16T00:01:46;13.30;99.90
7030;DHT22;3556;53.500;10.176;2022-10-16T00:04:12;13.20;99.90
7030;DHT22;3556;53.500;10.176;2022-10-16T00:06:37;13.20;99.90
7030;DHT22;3556;53.500;10.176;2022-10-16T00:09:03;13.20;99.90
7030;DHT22;3556;53.500;10.176;2022-10-16T00:11:32;13.10;99.90
7030;DHT22;3556;53.500;10.176;2022-10-16T00:14:05;13.20;99.90
7030;DHT22;3556;53.500;10.176;2022-10-16T00:16:31;13.10;99.90
7030;DHT22;3556;53.500;10.176;2022-10-16T00:18:57;13.10;99.90
7030;DHT22;3556;53.500;10.176;2022-10-16T00:21:25;13.10;99.90
7030;DHT22;3556;53.500;10.176;2022-10-16T00:23:53;13.00;99.90
7030;DHT22;3556;53.500;10.176;2022-10-16T00:26:20;13.00;99.90
7030;DHT22;3556;53.500;10.176;2022-10-16T00:28:47;13.00;99.90
7030;DHT22;3556;53.500;10.176;2022-10-16T00:31:14;12.90;99.90
7030;DHT22;3556;53.500;10.176;2022-10-16T00:33:40;12.90;99.90
7030;DHT22;3556;53.500;10.176;2022-10-16T00:36:07;12.80;99.90
7030;DHT22;3556;53.500;10.176;2022-10-16T00:38:33;12.80;99.90
7030;DHT22;3556;53.500;10.176;2022-10-16T00:40:59;12.80;99.90
7030;DHT22;3556;53.500;10.176;2022-10-16T00:43:40;12.70;99.90
7030;DHT22;3556;53.500;10.176;2022-10-16T00:51:32;12.70;99.90
7030;DHT22;3556;53.500;10.176;2022-10-16T00:53:59;12.70;99.90
7030;DHT22;3556;53.500;10.176;2022-10-16T00:56:25;12.60;99.90
7030;DHT22;3556;53.500;10.176;2022-10-16T00:58:50;12.60;99.90
7030;DHT22;3556;53.500;10.176;2022-10-16T01:01:16;12.60;99.90
7030;DHT22;3556;53.500;10.176;2022-10-16T01:03:41;12.50;99.90
7030;DHT22;3556;53.500;10.176;2022-10-16T01:06:24;12.50;99.90
7030;DHT22;3556;53.500;10.176;2022-10-16T01:11:36;12.40;99.90
7030;DHT22;3556;53.500;10.176;2022-10-16T01:14:15;12.40;99.90
7030;DHT22;3556;53.500;10.176;2022-10-16T01:16:52;12.40;99.90
7030;DHT22;3556;53.500;10.176;2022-10-16T01:21:52;12.40;99.90
7030;DHT22;3556;53.500;10.176;2022-10-16T01:29:44;12.40;99.90
7030;DHT22;3556;53.500;10.176;2022-10-16T01:32:40;12.40;99.90
7030;DHT22;3556;53.500;10.176;2022-10-16T01:35:25;12.40;99.90
7030;DHT22;3556;53.500;10.176;2022-10-16T01:38:15;12.30;99.90
7030;DHT22;3556;53.500;10.176;2022-10-16T01:40:46;12.30;99.90
7030;DHT22;3556;53.500;10.176;2022-10-16T01:43:17;12.30;99.90
7030;DHT22;3556;53.500;10.176;2022-10-16T01:45:45;12.30;99.90
7030;DHT22;3556;53.500;10.176;2022-10-16T01:48:14;12.30;99.90
7030;DHT22;3556;53.500;10.176;2022-10-16T01:50:43;12.30;99.90
7030;DHT22;3556;53.500;10.176;2022-10-16T01:53:12;12.30;99.90
7030;DHT22;3556;53.500;10.176;2022-10-16T01:55:42;12.20;99.90
7030;DHT22;3556;53.500;10.176;2022-10-16T01:58:12;12.20;99.90
7030;DHT22;3556;53.500;10.176;2022-10-16T02:00:40;12.10;99.90
7030;DHT22;3556;53.500;10.176;2022-10-16T02:03:07;12.10;99.90
7030;DHT22;3556;53.500;10.176;2022-10-16T02:05:36;12.10;99.90
7030;DHT22;3556;53.500;10.176;2022-10-16T02:08:03;12.10;99.90
7030;DHT22;3556;53.500;10.176;2022-10-16T02:10:29;12.00;99.90
7030;DHT22;3556;53.500;10.176;2022-10-16T02:13:09;12.00;99.90
7030;DHT22;3556;53.500;10.176;2022-10-16T02:15:35;12.00;99.90
7030;DHT22;3556;53.500;10.176;2022-10-16T02:18:03;12.00;99.90
7030;DHT22;3556;53.500;10.176;2022-10-16T02:20:34;12.00;99.90
7030;DHT22;3556;53.500;10.176;2022-10-16T02:23:01;12.00;99.90
7030;DHT22;3556;53.500;10.176;2022-10-16T02:25:35;12.00;99.90
7030;DHT22;3556;53.500;10.176;2022-10-16T02:30:44;12.00;99.90
7030;DHT22;3556;53.500;10.176;2022-10-16T02:33:11;11.90;99.90
7030;DHT22;3556;53.500;10.176;2022-10-16T02:35:41;11.90;99.90
7030;DHT22;3556;53.500;10.176;2022-10-16T02:38:09;11.90;99.90
7030;DHT22;3556;53.500;10.176;2022-10-16T02:40:35;11.90;99.90
7030;DHT22;3556;53.500;10.176;2022-10-16T02:43:03;11.80;99.90
7030;DHT22;3556;53.500;10.176;2022-10-16T02:45:29;11.80;99.90
7030;DHT22;3556;53.500;10.176;2022-10-16T02:47:55;11.80;99.90
7030;DHT22;3556;53.500;10.176;2022-10-16T02:50:21;11.80;99.90
7030;DHT22;3556;53.500;10.176;2022-10-16T02:52:47;11.80;99.90
7030;DHT22;3556;53.500;10.176;2022-10-16T02:55:13;11.70;99.90
7030;DHT22;3556;53.500;10.176;2022-10-16T02:57:39;11.70;99.90
7030;DHT22;3556;53.500;10.176;2022-10-16T03:00:09;11.70;99.90
7030;DHT22;3556;53.500;10.176;2022-10-16T03:02:35;11.70;99.90
7030;DHT22;3556;53.500;10.176;2022-10-16T03:05:01;11.60;99.90
7030;DHT22;3556;53.500;10.176;2022-10-16T03:07:27;11.60;99.90
7030;DHT22;3556;53.500;10.176;2022-10-16T03:09:52;11.50;99.90
7030;DHT22;3556;53.500;10.176;2022-10-16T03:12:18;11.50;99.90
7030;DHT22;3556;53.500;10.176;2022-10-16T03:14:43;11.50;99.90
7030;DHT22;3556;53.500;10.176;2022-10-16T03:17:09;11.40;99.90
7030;DHT22;3556;53.500;10.176;2022-10-16T03:19:35;11.40;99.90
7030;DHT22;3556;53.500;10.176;2022-10-16T03:22:01;11.30;99.90
7030;DHT22;3556;53.500;10.176;2022-10-16T03:24:27;11.30;99.90
7030;DHT22;3556;53.500;10.176;2022-10-16T03:26:52;11.30;99.90
7030;DHT22;3556;53.500;10.176;2022-10-16T03:29:18;11.30;99.90
7030;DHT22;3556;53.500;10.176;2022-10-16T03:31:43;11.20;99.90
7030;DHT22;3556;53.500;10.176;2022-10-16T03:34:09;11.20;99.90
7030;DHT22;3556;53.500;10.176;2022-10-16T03:36:35;11.20;99.90
7030;DHT22;3556;53.500;10.176;2022-10-16T03:39:00;11.20;99.90
7030;DHT22;3556;53.500;10.176;2022-10-16T03:41:26;11.10;99.90
7030;DHT22;3556;53.500;10.176;2022-10-16T03:43:51;11.10;99.90
7030;DHT22;3556;53.500;10.176;2022-10-16T03:46:17;11.10;99.90
7030;DHT22;3556;53.500;10.176;2022-10-16T03:48:42;11.10;99.90
7030;DHT22;3556;53.500;10.176;2022-10-16T03:51:08;11.10;99.90
7030;DHT22;3556;53.500;10.176;2022-10-16T03:53:34;11.00;99.90
7030;DHT22;3556;53.500;10.176;2022-10-16T03:55:59;11.00;99.90
7030;DHT22;3556;53.500;10.176;2022-10-16T03:58:25;11.00;99.90
7030;DHT22;3556;53.500;10.176;2022-10-16T04:00:50;11.00;99.90
7030;DHT22;3556;53.500;10.176;2022-10-16T04:03:16;11.00;99.90
7030;DHT22;3556;53.500;10.176;2022-10-16T04:05:44;10.90;99.90
7030;DHT22;3556;53.500;10.176;2022-10-16T04:08:09;10.90;99.90
7030;DHT22;3556;53.500;10.176;2022-10-16T04:10:35;11.00;99.90
7030;DHT22;3556;53.500;10.176;2022-10-16T04:13:00;11.00;99.90
7030;DHT22;3556;53.500;10.176;2022-10-16T04:15:26;10.90;99.90
7030;DHT22;3556;53.500;10.176;2022-10-16T04:17:52;10.90;99.90
7030;DHT22;3556;53.500;10.176;2022-10-16T04:20:18;10.90;99.90
7030;DHT22;3556;53.500;10.176;2022-10-16T04:22:44;10.90;99.90
7030;DHT22;3556;53.500;10.176;2022-10-16T04:25:10;10.90;99.90
7030;DHT22;3556;53.500;10.176;2022-10-16T04:27:37;10.80;99.90
7030;DHT22;3556;53.500;10.176;2022-10-16T04:30:03;10.80;99.90
7030;DHT22;3556;53.500;10.176;2022-10-16T04:32:29;10.80;99.90
7030;DHT22;3556;53.500;10.176;2022-10-16T04:34:54;10.80;99.90
7030;DHT22;3556;53.500;10.176;2022-10-16T04:37:24;10.70;99.90
7030;DHT22;3556;53.500;10.176;2022-10-16T04:39:50;10.70;99.90
7030;DHT22;3556;53.500;10.176;2022-10-16T04:42:16;10.70;99.90
7030;DHT22;3556;53.500;10.176;2022-10-16T04:44:41;10.70;99.90
7030;DHT22;3556;53.500;10.176;2022-10-16T04:47:07;10.70;99.90
7030;DHT22;3556;53.500;10.176;2022-10-16T04:49:33;10.60;99.90
7030;DHT22;3556;53.500;10.176;2022-10-16T04:51:59;10.60;99.90
7030;DHT22;3556;53.500;10.176;2022-10-16T04:54:24;10.60;99.90
7030;DHT22;3556;53.500;10.176;2022-10-16T04:56:50;10.60;99.90
7030;DHT22;3556;53.500;10.176;2022-10-16T04:59:18;10.60;99.90
7030;DHT22;3556;53.500;10.176;2022-10-16T05:01:44;10.60;99.90
7030;DHT22;3556;53.500;10.176;2022-10-16T05:04:09;10.50;99.90
7030;DHT22;3556;53.500;10.176;2022-10-16T05:06:36;10.50;99.90
7030;DHT22;3556;53.500;10.176;2022-10-16T05:09:02;10.50;99.90
7030;DHT22;3556;53.500;10.176;2022-10-16T05:11:27;10.50;99.90
7030;DHT22;3556;53.500;10.176;2022-10-16T05:13:53;10.50;99.90
7030;DHT22;3556;53.500;10.176;2022-10-16T05:16:19;10.40;99.90
7030;DHT22;3556;53.500;10.176;2022-10-16T05:18:44;10.40;99.90
7030;DHT22;3556;53.500;10.176;2022-10-16T05:21:10;10.40;99.90
7030;DHT22;3556;53.500;10.176;2022-10-16T05:23:35;10.40;99.90
7030;DHT22;3556;53.500;10.176;2022-10-16T05:26:01;10.30;99.90
7030;DHT22;3556;53.500;10.176;2022-10-16T05:28:27;10.40;99.90
7030;DHT22;3556;53.500;10.176;2022-10-16T05:30:53;10.30;99.90
7030;DHT22;3556;53.500;10.176;2022-10-16T05:33:24;10.30;99.90
7030;DHT22;3556;53.500;10.176;2022-10-16T05:35:50;10.30;99.90
7030;DHT22;3556;53.500;10.176;2022-10-16T05:38:17;10.30;99.90
7030;DHT22;3556;53.500;10.176;2022-10-16T05:40:43;10.30;99.90
7030;DHT22;3556;53.500;10.176;2022-10-16T05:43:08;10.20;99.90
7030;DHT22;3556;53.500;10.176;2022-10-16T05:45:34;10.30;99.90
7030;DHT22;3556;53.500;10.176;2022-10-16T05:48:00;10.20;99.90
7030;DHT22;3556;53.500;10.176;2022-10-16T05:50:26;10.20;99.90
7030;DHT22;3556;53.500;10.176;2022-10-16T05:52:52;10.20;99.90
7030;DHT22;3556;53.500;10.176;2022-10-16T05:55:18;10.20;99.90
7030;DHT22;3556;53.500;10.176;2022-10-16T05:57:43;10.20;99.90
7030;DHT22;3556;53.500;10.176;2022-10-16T06:00:10;10.10;99.90
7030;DHT22;3556;53.500;10.176;2022-10-16T06:02:35;10.10;99.90
7030;DHT22;3556;53.500;10.176;2022-10-16T06:05:01;10.10;99.90
7030;DHT22;3556;53.500;10.176;2022-10-16T06:07:26;10.10;99.90
7030;DHT22;3556;53.500;10.176;2022-10-16T06:09:53;10.10;99.90
7030;DHT22;3556;53.500;10.176;2022-10-16T06:12:19;10.10;99.90
7030;DHT22;3556;53.500;10.176;2022-10-16T06:14:45;10.10;99.90
7030;DHT22;3556;53.500;10.176;2022-10-16T06:17:14;10.10;99.90
7030;DHT22;3556;53.500;10.176;2022-10-16T06:19:40;10.10;99.90
7030;DHT22;3556;53.500;10.176;2022-10-16T06:22:06;10.10;99.90
7030;DHT22;3556;53.500;10.176;2022-10-16T06:24:32;10.10;99.90
7030;DHT22;3556;53.500;10.176;2022-10-16T06:26:58;10.10;99.90
7030;DHT22;3556;53.500;10.176;2022-10-16T06:29:23;10.10;99.90
7030;DHT22;3556;53.500;10.176;2022-10-16T06:31:49;10.20;99.90
7030;DHT22;3556;53.500;10.176;2022-10-16T06:34:14;10.20;99.90
7030;DHT22;3556;53.500;10.176;2022-10-16T06:36:40;10.20;99.90
7030;DHT22;3556;53.500;10.176;2022-10-16T06:39:06;10.20;99.90
7030;DHT22;3556;53.500;10.176;2022-10-16T06:41:33;10.20;99.90
7030;DHT22;3556;53.500;10.176;2022-10-16T06:43:59;10.20;99.90
7030;DHT22;3556;53.500;10.176;2022-10-16T06:46:26;10.30;99.90
7030;DHT22;3556;53.500;10.176;2022-10-16T06:48:52;10.30;99.90
7030;DHT22;3556;53.500;10.176;2022-10-16T06:51:20;10.30;99.90
7030;DHT22;3556;53.500;10.176;2022-10-16T06:53:54;10.30;99.90
7030;DHT22;3556;53.500;10.176;2022-10-16T06:56:26;10.40;99.90
7030;DHT22;3556;53.500;10.176;2022-10-16T06:58:53;10.40;99.90
7030;DHT22;3556;53.500;10.176;2022-10-16T07:01:21;10.50;99.90
7030;DHT22;3556;53.500;10.176;2022-10-16T07:03:47;10.60;99.90
7030;DHT22;3556;53.500;10.176;2022-10-16T07:06:16;10.60;99.90
7030;DHT22;3556;53.500;10.176;2022-10-16T07:08:44;10.60;99.90
7030;DHT22;3556;53.500;10.176;2022-10-16T07:11:14;10.70;99.90
7030;DHT22;3556;53.500;10.176;2022-10-16T07:13:41;10.80;99.90
7030;DHT22;3556;53.500;10.176;2022-10-16T07:16:13;10.90;99.90
7030;DHT22;3556;53.500;10.176;2022-10-16T07:18:39;11.00;99.90
7030;DHT22;3556;53.500;10.176;2022-10-16T07:21:07;11.20;99.90
7030;DHT22;3556;53.500;10.176;2022-10-16T07:23:33;11.30;99.90
7030;DHT22;3556;53.500;10.176;2022-10-16T07:25:59;11.40;99.90
7030;DHT22;3556;53.500;10.176;2022-10-16T07:28:24;11.50;99.90
7030;DHT22;3556;53.500;10.176;2022-10-16T07:30:50;11.60;99.90
7030;DHT22;3556;53.500;10.176;2022-10-16T07:33:16;11.70;99.90
7030;DHT22;3556;53.500;10.176;2022-10-16T07:35:52;11.90;99.90
7030;DHT22;3556;53.500;10.176;2022-10-16T07:38:18;12.10;99.90
7030;DHT22;3556;53.500;10.176;2022-10-16T07:40:44;12.20;99.90
7030;DHT22;3556;53.500;10.176;2022-10-16T07:43:10;12.40;99.90
7030;DHT22;3556;53.500;10.176;2022-10-16T07:45:35;12.60;99.90
7030;DHT22;3556;53.500;10.176;2022-10-16T07:48:01;12.80;99.90
7030;DHT22;3556;53.500;10.176;2022-10-16T07:50:27;13.00;99.90
7030;DHT22;3556;53.500;10.176;2022-10-16T07:52:52;13.20;99.90
7030;DHT22;3556;53.500;10.176;2022-10-16T07:55:18;13.30;99.90
7030;DHT22;3556;53.500;10.176;2022-10-16T07:57:43;13.50;99.90
7030;DHT22;3556;53.500;10.176;2022-10-16T08:00:09;13.60;99.90
7030;DHT22;3556;53.500;10.176;2022-10-16T08:02:39;13.70;99.90
7030;DHT22;3556;53.500;10.176;2022-10-16T08:05:06;13.90;99.90
7030;DHT22;3556;53.500;10.176;2022-10-16T08:07:31;14.10;99.90
7030;DHT22;3556;53.500;10.176;2022-10-16T08:09:57;14.20;99.90
7030;DHT22;3556;53.500;10.176;2022-10-16T08:12:25;14.30;99.90
7030;DHT22;3556;53.500;10.176;2022-10-16T08:14:51;14.40;99.90
7030;DHT22;3556;53.500;10.176;2022-10-16T08:17:16;14.50;99.90
7030;DHT22;3556;53.500;10.176;2022-10-16T08:19:46;14.50;99.90
7030;DHT22;3556;53.500;10.176;2022-10-16T08:22:13;14.50;99.90
7030;DHT22;3556;53.500;10.176;2022-10-16T08:24:39;14.50;99.90
7030;DHT22;3556;53.500;10.176;2022-10-16T08:27:04;14.50;99.90
7030;DHT22;3556;53.500;10.176;2022-10-16T08:29:30;14.50;99.90
7030;DHT22;3556;53.500;10.176;2022-10-16T08:31:56;14.60;99.90
7030;DHT22;3556;53.500;10.176;2022-10-16T08:34:21;14.60;99.90
7030;DHT22;3556;53.500;10.176;2022-10-16T08:36:47;14.50;99.90
7030;DHT22;3556;53.500;10.176;2022-10-16T08:39:12;14.50;99.90
7030;DHT22;3556;53.500;10.176;2022-10-16T08:44:59;14.60;99.90
7030;DHT22;3556;53.500;10.176;2022-10-16T08:47:36;14.70;99.90
7030;DHT22;3556;53.500;10.176;2022-10-16T08:50:12;14.80;99.90
7030;DHT22;3556;53.500;10.176;2022-10-16T08:52:41;15.00;99.90
7030;DHT22;3556;53.500;10.176;2022-10-16T08:55:28;15.10;99.90
7030;DHT22;3556;53.500;10.176;2022-10-16T08:57:54;15.20;99.90
7030;DHT22;3556;53.500;10.176;2022-10-16T09:00:20;15.40;99.90
7030;DHT22;3556;53.500;10.176;2022-10-16T09:03:11;15.40;99.90
7030;DHT22;3556;53.500;10.176;2022-10-16T09:13:50;15.80;99.90
7030;DHT22;3556;53.500;10.176;2022-10-16T09:21:38;16.00;99.90
7030;DHT22;3556;53.500;10.176;2022-10-16T09:24:17;16.10;99.90
7030;DHT22;3556;53.500;10.176;2022-10-16T09:26:45;16.20;99.90
7030;DHT22;3556;53.500;10.176;2022-10-16T09:29:15;16.20;99.90
7030;DHT22;3556;53.500;10.176;2022-10-16T09:31:42;16.20;99.90
7030;DHT22;3556;53.500;10.176;2022-10-16T09:34:25;16.20;99.90
7030;DHT22;3556;53.500;10.176;2022-10-16T09:36:52;16.20;99.90
7030;DHT22;3556;53.500;10.176;2022-10-16T09:39:18;16.20;99.90
7030;DHT22;3556;53.500;10.176;2022-10-16T09:41:45;16.30;99.90
7030;DHT22;3556;53.500;10.176;2022-10-16T09:44:29;16.30;99.90
7030;DHT22;3556;53.500;10.176;2022-10-16T09:47:06;16.30;99.90
7030;DHT22;3556;53.500;10.176;2022-10-16T09:49:37;16.40;99.90
7030;DHT22;3556;53.500;10.176;2022-10-16T09:52:13;16.50;99.90
7030;DHT22;3556;53.500;10.176;2022-10-16T09:55:31;16.60;99.90
7030;DHT22;3556;53.500;10.176;2022-10-16T09:57:49;16.60;99.90
7030;DHT22;3556;53.500;10.176;2022-10-16T10:00:18;16.80;99.90
7030;DHT22;3556;53.500;10.176;2022-10-16T10:02:44;16.70;99.90
7030;DHT22;3556;53.500;10.176;2022-10-16T10:05:29;16.60;99.90
7030;DHT22;3556;53.500;10.176;2022-10-16T10:08:02;16.60;99.90
7030;DHT22;3556;53.500;10.176;2022-10-16T10:10:33;16.60;99.90
7030;DHT22;3556;53.500;10.176;2022-10-16T10:12:58;16.60;99.90
7030;DHT22;3556;53.500;10.176;2022-10-16T10:15:32;16.70;99.90
7030;DHT22;3556;53.500;10.176;2022-10-16T10:17:58;16.80;99.90
7030;DHT22;3556;53.500;10.176;2022-10-16T10:20:28;16.90;99.90
7030;DHT22;3556;53.500;10.176;2022-10-16T10:22:55;17.00;99.90
7030;DHT22;3556;53.500;10.176;2022-10-16T10:31:20;17.20;99.90
7030;DHT22;3556;53.500;10.176;2022-10-16T10:34:01;17.30;99.90
7030;DHT22;3556;53.500;10.176;2022-10-16T10:36:34;17.40;99.90
7030;DHT22;3556;53.500;10.176;2022-10-16T10:39:25;17.50;99.90
7030;DHT22;3556;53.500;10.176;2022-10-16T10:45:16;17.60;99.90
7030;DHT22;3556;53.500;10.176;2022-10-16T10:56:03;17.80;99.90
7030;DHT22;3556;53.500;10.176;2022-10-16T10:58:58;17.90;99.90
7030;DHT22;3556;53.500;10.176;2022-10-16T11:06:51;18.10;99.90
7030;DHT22;3556;53.500;10.176;2022-10-16T11:09:26;18.20;99.90
7030;DHT22;3556;53.500;10.176;2022-10-16T11:14:40;18.40;99.90
7030;DHT22;3556;53.500;10.176;2022-10-16T11:17:15;18.50;99.90
7030;DHT22;3556;53.500;10.176;2022-10-16T11:19:51;18.60;99.90
7030;DHT22;3556;53.500;10.176;2022-10-16T11:22:34;18.60;99.90
7030;DHT22;3556;53.500;10.176;2022-10-16T11:25:18;18.60;99.90
7030;DHT22;3556;53.500;10.176;2022-10-16T11:28:02;18.70;99.90
7030;DHT22;3556;53.500;10.176;2022-10-16T11:30:30;18.70;99.90
7030;DHT22;3556;53.500;10.176;2022-10-16T11:35:53;19.00;99.90
7030;DHT22;3556;53.500;10.176;2022-10-16T11:38:39;19.10;99.90
7030;DHT22;3556;53.500;10.176;2022-10-16T11:41:28;19.00;99.90
7030;DHT22;3556;53.500;10.176;2022-10-16T11:44:02;18.90;99.90
7030;DHT22;3556;53.500;10.176;2022-10-16T11:46:31;18.80;99.90
7030;DHT22;3556;53.500;10.176;2022-10-16T11:51:40;18.70;99.90
7030;DHT22;3556;53.500;10.176;2022-10-16T11:54:28;18.70;99.90
7030;DHT22;3556;53.500;10.176;2022-10-16T11:57:02;18.70;99.90
7030;DHT22;3556;53.500;10.176;2022-10-16T11:59:57;18.90;99.90
7030;DHT22;3556;53.500;10.176;2022-10-16T12:02:33;19.00;99.90
7030;DHT22;3556;53.500;10.176;2022-10-16T12:05:50;19.00;99.90
7030;DHT22;3556;53.500;10.176;2022-10-16T12:08:12;19.00;99.90
7030;DHT22;3556;53.500;10.176;2022-10-16T12:10:41;18.80;99.90
7030;DHT22;3556;53.500;10.176;2022-10-16T12:13:44;18.90;99.90
7030;DHT22;3556;53.500;10.176;2022-10-16T12:18:39;19.20;99.90
7030;DHT22;3556;53.500;10.176;2022-10-16T12:21:05;19.30;99.90
7030;DHT22;3556;53.500;10.176;2022-10-16T12:23:54;19.40;99.90
7030;DHT22;3556;53.500;10.176;2022-10-16T12:26:32;19.40;99.90
7030;DHT22;3556;53.500;10.176;2022-10-16T12:31:50;18.70;99.90
7030;DHT22;3556;53.500;10.176;2022-10-16T12:34:23;18.50;99.90
7030;DHT22;3556;53.500;10.176;2022-10-16T12:36:52;18.30;99.90
7030;DHT22;3556;53.500;10.176;2022-10-16T12:39:28;18.10;99.90
7030;DHT22;3556;53.500;10.176;2022-10-16T12:42:21;18.00;99.90
7030;DHT22;3556;53.500;10.176;2022-10-16T12:44:47;17.90;99.90
7030;DHT22;3556;53.500;10.176;2022-10-16T12:49:59;17.70;99.90
7030;DHT22;3556;53.500;10.176;2022-10-16T12:54:59;17.60;99.90
7030;DHT22;3556;53.500;10.176;2022-10-16T13:00:28;17.50;99.90
7030;DHT22;3556;53.500;10.176;2022-10-16T13:14:23;18.20;99.90
7030;DHT22;3556;53.500;10.176;2022-10-16T13:20:00;18.10;99.90
7030;DHT22;3556;53.500;10.176;2022-10-16T13:28:07;19.00;99.90
7030;DHT22;3556;53.500;10.176;2022-10-16T13:30:43;19.30;99.90
7030;DHT22;3556;53.500;10.176;2022-10-16T13:33:14;19.30;99.90
7030;DHT22;3556;53.500;10.176;2022-10-16T13:35:54;19.00;99.90
7030;DHT22;3556;53.500;10.176;2022-10-16T13:38:26;18.70;99.90
7030;DHT22;3556;53.500;10.176;2022-10-16T13:40:59;18.50;99.90
7030;DHT22;3556;53.500;10.176;2022-10-16T13:43:33;18.30;99.90
7030;DHT22;3556;53.500;10.176;2022-10-16T13:46:19;18.10;99.90
7030;DHT22;3556;53.500;10.176;2022-10-16T13:48:59;18.00;99.90
7030;DHT22;3556;53.500;10.176;2022-10-16T13:51:25;17.90;99.90
7030;DHT22;3556;53.500;10.176;2022-10-16T13:53:51;18.00;99.90
7030;DHT22;3556;53.500;10.176;2022-10-16T13:56:20;18.10;99.90
7030;DHT22;3556;53.500;10.176;2022-10-16T13:58:46;18.60;99.90
7030;DHT22;3556;53.500;10.176;2022-10-16T14:01:25;19.50;99.90
7030;DHT22;3556;53.500;10.176;2022-10-16T14:03:52;20.50;99.90
7030;DHT22;3556;53.500;10.176;2022-10-16T14:06:20;21.60;99.90
7030;DHT22;3556;53.500;10.176;2022-10-16T14:09:07;22.60;99.90
7030;DHT22;3556;53.500;10.176;2022-10-16T14:11:34;23.80;98.60
7030;DHT22;3556;53.500;10.176;2022-10-16T14:14:02;24.70;93.50
7030;DHT22;3556;53.500;10.176;2022-10-16T14:16:30;25.30;92.90
7030;DHT22;3556;53.500;10.176;2022-10-16T14:19:04;25.40;90.90
7030;DHT22;3556;53.500;10.176;2022-10-16T14:21:36;24.80;90.70
7030;DHT22;3556;53.500;10.176;2022-10-16T14:24:13;24.20;92.80
7030;DHT22;3556;53.500;10.176;2022-10-16T14:26:45;24.40;91.20
7030;DHT22;3556;53.500;10.176;2022-10-16T14:29:17;24.40;89.00
7030;DHT22;3556;53.500;10.176;2022-10-16T14:32:00;24.40;89.80
7030;DHT22;3556;53.500;10.176;2022-10-16T14:36:56;25.00;87.50
7030;DHT22;3556;53.500;10.176;2022-10-16T14:39:23;25.40;89.00
7030;DHT22;3556;53.500;10.176;2022-10-16T14:41:51;25.90;82.80
7030;DHT22;3556;53.500;10.176;2022-10-16T14:44:18;26.20;77.60
7030;DHT22;3556;53.500;10.176;2022-10-16T14:46:44;26.40;78.90
7030;DHT22;3556;53.500;10.176;2022-10-16T14:51:41;26.70;76.90
7030;DHT22;3556;53.500;10.176;2022-10-16T14:54:09;26.80;75.80
7030;DHT22;3556;53.500;10.176;2022-10-16T14:56:50;27.00;73.40
7030;DHT22;3556;53.500;10.176;2022-10-16T14:59:24;27.10;72.00
7030;DHT22;3556;53.500;10.176;2022-10-16T15:01:51;27.30;71.80
7030;DHT22;3556;53.500;10.176;2022-10-16T15:04:16;27.10;69.50
7030;DHT22;3556;53.500;10.176;2022-10-16T15:06:43;26.80;69.10
7030;DHT22;3556;53.500;10.176;2022-10-16T15:09:08;26.80;71.10
7030;DHT22;3556;53.500;10.176;2022-10-16T15:11:34;26.60;69.20
7030;DHT22;3556;53.500;10.176;2022-10-16T15:14:00;26.10;71.80
7030;DHT22;3556;53.500;10.176;2022-10-16T15:16:26;25.40;73.20
7030;DHT22;3556;53.500;10.176;2022-10-16T15:18:52;24.50;75.40
7030;DHT22;3556;53.500;10.176;2022-10-16T15:21:29;23.80;81.60
7030;DHT22;3556;53.500;10.176;2022-10-16T15:23:56;22.90;81.90
7030;DHT22;3556;53.500;10.176;2022-10-16T15:26:23;22.10;84.00
7030;DHT22;3556;53.500;10.176;2022-10-16T15:28:49;21.50;89.50
7030;DHT22;3556;53.500;10.176;2022-10-16T15:31:15;21.00;92.90
7030;DHT22;3556;53.500;10.176;2022-10-16T15:33:40;20.50;92.50
7030;DHT22;3556;53.500;10.176;2022-10-16T15:36:06;19.90;93.00
7030;DHT22;3556;53.500;10.176;2022-10-16T15:38:33;19.50;96.10
7030;DHT22;3556;53.500;10.176;2022-10-16T15:40:58;19.10;97.00
7030;DHT22;3556;53.500;10.176;2022-10-16T15:43:24;18.80;99.90
7030;DHT22;3556;53.500;10.176;2022-10-16T15:48:25;18.30;99.90
7030;DHT22;3556;53.500;10.176;2022-10-16T15:50:51;18.20;99.90
7030;DHT22;3556;53.500;10.176;2022-10-16T15:53:16;18.00;99.90
7030;DHT22;3556;53.500;10.176;2022-10-16T15:55:42;17.80;99.90
7030;DHT22;3556;53.500;10.176;2022-10-16T15:58:07;17.60;99.90
7030;DHT22;3556;53.500;10.176;2022-10-16T16:00:33;17.40;99.90
7030;DHT22;3556;53.500;10.176;2022-10-16T16:02:58;17.30;99.90
7030;DHT22;3556;53.500;10.176;2022-10-16T16:05:24;17.20;99.90
7030;DHT22;3556;53.500;10.176;2022-10-16T16:07:50;17.10;99.90
7030;DHT22;3556;53.500;10.176;2022-10-16T16:10:17;16.90;99.90
7030;DHT22;3556;53.500;10.176;2022-10-16T16:12:42;16.80;99.90
7030;DHT22;3556;53.500;10.176;2022-10-16T16:15:09;16.70;99.90
7030;DHT22;3556;53.500;10.176;2022-10-16T16:17:35;16.60;99.90
7030;DHT22;3556;53.500;10.176;2022-10-16T16:20:01;16.50;99.90
7030;DHT22;3556;53.500;10.176;2022-10-16T16:22:27;16.40;99.90
7030;DHT22;3556;53.500;10.176;2022-10-16T16:24:54;16.30;99.90
7030;DHT22;3556;53.500;10.176;2022-10-16T16:27:19;16.20;99.90
7030;DHT22;3556;53.500;10.176;2022-10-16T16:29:46;16.10;99.90
7030;DHT22;3556;53.500;10.176;2022-10-16T16:32:11;16.00;99.90
7030;DHT22;3556;53.500;10.176;2022-10-16T16:34:37;15.90;99.90
7030;DHT22;3556;53.500;10.176;2022-10-16T16:37:02;15.70;99.90
7030;DHT22;3556;53.500;10.176;2022-10-16T16:39:28;15.70;99.90
7030;DHT22;3556;53.500;10.176;2022-10-16T16:41:56;15.50;99.90
7030;DHT22;3556;53.500;10.176;2022-10-16T16:44:22;15.40;99.90
7030;DHT22;3556;53.500;10.176;2022-10-16T16:46:47;15.30;99.90
7030;DHT22;3556;53.500;10.176;2022-10-16T16:49:13;15.20;99.90
7030;DHT22;3556;53.500;10.176;2022-10-16T16:51:40;15.10;99.90
7030;DHT22;3556;53.500;10.176;2022-10-16T16:54:06;14.90;99.90
7030;DHT22;3556;53.500;10.176;2022-10-16T16:56:33;14.90;99.90
7030;DHT22;3556;53.500;10.176;2022-10-16T16:58:59;14.80;99.90
7030;DHT22;3556;53.500;10.176;2022-10-16T17:01:26;14.70;99.90
7030;DHT22;3556;53.500;10.176;2022-10-16T17:03:54;14.60;99.90
7030;DHT22;3556;53.500;10.176;2022-10-16T17:06:22;14.50;99.90
7030;DHT22;3556;53.500;10.176;2022-10-16T17:08:49;14.40;99.90
7030;DHT22;3556;53.500;10.176;2022-10-16T17:11:21;14.30;99.90
7030;DHT22;3556;53.500;10.176;2022-10-16T17:13:47;14.20;99.90
7030;DHT22;3556;53.500;10.176;2022-10-16T17:16:13;14.10;99.90
7030;DHT22;3556;53.500;10.176;2022-10-16T17:18:39;14.00;99.90
7030;DHT22;3556;53.500;10.176;2022-10-16T17:21:07;13.90;99.90
7030;DHT22;3556;53.500;10.176;2022-10-16T17:23:34;13.80;99.90
7030;DHT22;3556;53.500;10.176;2022-10-16T17:26:09;13.80;99.90
7030;DHT22;3556;53.500;10.176;2022-10-16T17:28:35;13.70;99.90
7030;DHT22;3556;53.500;10.176;2022-10-16T17:31:18;13.60;99.90
7030;DHT22;3556;53.500;10.176;2022-10-16T17:33:44;13.60;99.90
7030;DHT22;3556;53.500;10.176;2022-10-16T17:36:11;13.50;99.90
7030;DHT22;3556;53.500;10.176;2022-10-16T17:38:39;13.40;99.90
7030;DHT22;3556;53.500;10.176;2022-10-16T17:41:13;13.30;99.90
7030;DHT22;3556;53.500;10.176;2022-10-16T17:43:39;13.20;99.90
7030;DHT22;3556;53.500;10.176;2022-10-16T17:46:06;13.20;99.90